METAR Data
IDs: Format: Raw Decoded Include TAF

Data at: 0835 UTC 18 Nov 2018

PANI 180756Z AUTO 13008KT 10SM FEW042 BKN060 OVC075 01/00 A2934 RMK AO2 RAE49 SLP905 P0000 T00110000 FZRANO
PANI 180656Z AUTO 11007KT 10SM -RA OVC039 01/00 A2934 RMK AO2 SLP904 P0001 T00110000 FZRANO
PANI 180556Z AUTO 13008KT 10SM -RA OVC039 02/00 A2934 RMK AO2 SLP905 P0002 60004 T00170000 10022 20011 58002 FZRANO
PANI 180456Z AUTO 12009KT 10SM -RA OVC037 02/00 A2934 RMK AO2 SLP906 P0002 T00170000 FZRANO
PANI 180407Z AUTO 12009KT 10SM -RA SCT024 BKN030 OVC039 02/00 A2935 RMK AO2 P0001 FZRANO
PANI 180356Z AUTO 12008KT 10SM -RA SCT024 BKN029 OVC039 02/00 A2935 RMK AO2 SLP907 P0000 T00170000 FZRANO
PANI 180256Z AUTO 11009KT 10SM -RA FEW026 OVC046 02/00 A2935 RMK AO2 SLP907 P0000 60000 T00170000 58010 FZRANO
PANI 180156Z AUTO 12006KT 10SM -RA BKN047 BKN060 OVC070 01/M01 A2936 RMK AO2 RAB12 SLP911 P0000 T00111006 FZRANO
PANI 180056Z AUTO 14005KT 10SM FEW049 OVC070 02/00 A2937 RMK AO2 RAE53UPB02E15 SLP914 P0000 T00170000 FZRANO
PANI 172356Z AUTO 15005KT 10SM -RA FEW028 OVC060 02/00 A2938 RMK AO2 RAB38 SLP917 P0000 60000 T00220000 10028 20017 56016 FZRANO
PANI 172256Z AUTO 13006KT 10SM SCT060 BKN075 OVC110 02/00 A2939 RMK AO2 RAE26 SLP921 P0000 T00220000 FZRANO
PANI 172156Z AUTO 13007KT 10SM -RA SCT050 OVC060 02/00 A2941 RMK AO2 RAE02B19UPB20E24 SLP928 P0000 T00220000 FZRANO
PANI 172056Z AUTO 13007KT 10SM -RA FEW027 SCT033 OVC070 02/M01 A2942 RMK AO2 RAB50 SLP932 P0000 60000 T00221006 56004 FZRANO
PANI 171956Z AUTO 13009KT 10SM FEW060 BKN085 OVC120 02/M01 A2943 RMK AO2 SLP934 T00221006 FZRANO
PANI 171856Z AUTO 12009KT 10SM BKN120 02/M01 A2943 RMK AO2 SLP934 T00221006 FZRANO
PANI 171756Z AUTO 14006KT 10SM FEW075 BKN095 OVC120 02/M01 A2943 RMK AO2 SLP937 60000 T00221006 10022 20011 58011 FZRANO
PANI 171656Z AUTO 14006KT 10SM SCT095 SCT120 02/M01 A2945 RMK AO2 SLP941 T00171011 FZRANO
PANI 171556Z AUTO 12009KT 10SM OVC095 02/M01 A2946 RMK AO2 UPB00E22RAB22E32 SLP944 P0000 T00171011 FZRANO
PANI 171456Z AUTO 12009KT 10SM BKN060 OVC090 02/M02 A2947 RMK AO2 SLP947 T00171017 56015 FZRANO
PANI 171356Z AUTO 12009KT 10SM OVC090 01/M02 A2948 RMK AO2 SLP951 T00111022 FZRANO
PANI 171313Z AUTO 12011KT 10SM SCT026 BKN110 01/M02 A2949 RMK AO2 FZRANO
PANI 171306Z AUTO 12011KT 10SM BKN026 BKN110 01/M02 A2949 RMK AO2 FZRANO
PANI 171256Z AUTO 13008KT 10SM SCT028 OVC110 01/M02 A2949 RMK AO2 SLP957 T00111022 FZRANO
PANI 171156Z AUTO 11011KT 10SM BKN065 OVC080 02/M02 A2951 RMK AO2 SLP962 60000 T00171017 10017 20011 58014 FZRANO
PANI 171056Z AUTO 15006KT 10SM OVC060 01/M02 A2954 RMK AO2 RAB06E46UPB15E18 SLP971 P0000 T00111017 FZRANO
PANI 170956Z AUTO 13008KT 10SM OVC070 01/M02 A2954 RMK AO2 RAB0858E54UPB31E34 SLP972 P0000 T00111017 FZRANO
PANI 170856Z AUTO 14007KT 10SM SCT075 OVC100 01/M02 A2955 RMK AO2 SLP977 60000 T00111017 400171078 58014 FZRANO
PANI 170756Z AUTO 13009KT 10SM BKN030 OVC080 01/M02 A2957 RMK AO2 RAE08UPB08E17 SLP983 P0000 T00111017 FZRANO
PANI 170656Z AUTO 14006KT 10SM -RA SCT036 BKN075 02/M01 A2958 RMK AO2 RAB45 SLP985 P0000 T00171006 FZRANO
PANI 170556Z AUTO 14007KT 10SM BKN080 02/M01 A2959 RMK AO2 SLP990 T00171006 10017 21011 56025 FZRANO
PANI 170456Z AUTO 12013KT 10SM SCT028 OVC070 01/M01 A2961 RMK AO2 SLP995 T00111011 FZRANO
PANI 170406Z AUTO 12008KT 10SM OVC028 01/M01 A2964 RMK AO2 FZRANO
PANI 170356Z AUTO 13006KT 10SM OVC030 01/M01 A2965 RMK AO2 SLP008 T00111011 FZRANO
PANI 170256Z AUTO 00000KT 10SM OVC030 00/M02 A2967 RMK AO2 SLP015 T00001017 56016 FZRANO
PANI 170156Z AUTO 27003KT 10SM OVC032 00/M02 A2968 RMK AO2 SLP018 T00001022 FZRANO
PANI 170056Z AUTO 00000KT 10SM BKN034 OVC070 M01/M03 A2969 RMK AO2 SLP023 T10111033 FZRANO
PANI 162356Z AUTO 07003KT 10SM BKN032 OVC075 M01/M04 A2971 RMK AO2 SLP030 60000 T10111039 11011 21056 58027 FZRANO
PANI 162256Z AUTO 06005KT 10SM OVC034 M02/M04 A2975 RMK AO2 SNE26 SLP043 P0000 T10221044 FZRANO
PANI 162156Z AUTO 00000KT 9SM -SN BKN034 OVC080 M03/M06 A2978 RMK AO2 SNB40 SLP052 P0000 T10331056 FZRANO
PANI 162056Z AUTO 03004KT 10SM BKN070 OVC085 M04/M07 A2979 RMK AO2 SLP057 T10441067 57008 FZRANO